sensor_id;sensor_type;location;lat;lon;timestamp;P1;durP1;ratioP1;P2;durP2;ratioP2
19113;SDS011;9689;51.052;13.772;2022-10-16T00:02:51;29.83;;;15.15;;
19113;SDS011;9689;51.052;13.772;2022-10-16T00:07:52;24.40;;;16.63;;
19113;SDS011;9689;51.052;13.772;2022-10-16T00:12:53;34.35;;;18.95;;
19113;SDS011;9689;51.052;13.772;2022-10-16T00:17:57;27.23;;;16.92;;
19113;SDS011;9689;51.052;13.772;2022-10-16T00:22:57;38.72;;;21.33;;
19113;SDS011;9689;51.052;13.772;2022-10-16T00:28:06;37.00;;;20.02;;
19113;SDS011;9689;51.052;13.772;2022-10-16T00:33:11;27.52;;;16.83;;
19113;SDS011;9689;51.052;13.772;2022-10-16T00:38:14;24.65;;;15.90;;
19113;SDS011;9689;51.052;13.772;2022-10-16T00:48:39;26.85;;;16.38;;
19113;SDS011;9689;51.052;13.772;2022-10-16T00:53:40;28.92;;;15.18;;
19113;SDS011;9689;51.052;13.772;2022-10-16T00:58:43;21.90;;;14.68;;
19113;SDS011;9689;51.052;13.772;2022-10-16T01:03:48;24.98;;;15.07;;
19113;SDS011;9689;51.052;13.772;2022-10-16T01:09:04;22.75;;;14.88;;
19113;SDS011;9689;51.052;13.772;2022-10-16T01:14:18;20.52;;;14.20;;
19113;SDS011;9689;51.052;13.772;2022-10-16T01:19:30;21.05;;;13.55;;
19113;SDS011;9689;51.052;13.772;2022-10-16T01:24:49;23.95;;;15.15;;
19113;SDS011;9689;51.052;13.772;2022-10-16T01:29:54;19.35;;;13.20;;
19113;SDS011;9689;51.052;13.772;2022-10-16T01:35:00;18.23;;;12.98;;
19113;SDS011;9689;51.052;13.772;2022-10-16T01:40:10;19.13;;;13.10;;
19113;SDS011;9689;51.052;13.772;2022-10-16T01:45:16;22.38;;;13.30;;
19113;SDS011;9689;51.052;13.772;2022-10-16T01:50:20;19.08;;;12.57;;
19113;SDS011;9689;51.052;13.772;2022-10-16T01:55:22;18.33;;;12.32;;
19113;SDS011;9689;51.052;13.772;2022-10-16T02:00:28;19.58;;;12.85;;
19113;SDS011;9689;51.052;13.772;2022-10-16T02:05:31;18.73;;;12.93;;
19113;SDS011;9689;51.052;13.772;2022-10-16T02:10:40;17.25;;;13.07;;
19113;SDS011;9689;51.052;13.772;2022-10-16T02:15:47;21.60;;;14.07;;
19113;SDS011;9689;51.052;13.772;2022-10-16T02:20:49;18.63;;;13.82;;
19113;SDS011;9689;51.052;13.772;2022-10-16T02:25:56;21.33;;;14.70;;
19113;SDS011;9689;51.052;13.772;2022-10-16T02:31:01;20.73;;;14.25;;
19113;SDS011;9689;51.052;13.772;2022-10-16T02:36:11;22.15;;;15.60;;
19113;SDS011;9689;51.052;13.772;2022-10-16T02:41:15;20.50;;;14.18;;
19113;SDS011;9689;51.052;13.772;2022-10-16T02:46:19;20.60;;;14.20;;
19113;SDS011;9689;51.052;13.772;2022-10-16T02:51:20;23.70;;;15.05;;
19113;SDS011;9689;51.052;13.772;2022-10-16T02:56:21;22.58;;;15.60;;
19113;SDS011;9689;51.052;13.772;2022-10-16T03:01:24;22.02;;;14.95;;
19113;SDS011;9689;51.052;13.772;2022-10-16T03:06:25;19.73;;;14.57;;
19113;SDS011;9689;51.052;13.772;2022-10-16T03:11:25;20.65;;;15.15;;
19113;SDS011;9689;51.052;13.772;2022-10-16T03:16:28;19.30;;;13.05;;
19113;SDS011;9689;51.052;13.772;2022-10-16T03:21:29;20.33;;;13.65;;
19113;SDS011;9689;51.052;13.772;2022-10-16T03:26:30;19.40;;;13.70;;
19113;SDS011;9689;51.052;13.772;2022-10-16T03:31:33;18.23;;;13.65;;
19113;SDS011;9689;51.052;13.772;2022-10-16T03:36:34;20.75;;;13.65;;
19113;SDS011;9689;51.052;13.772;2022-10-16T03:41:34;19.58;;;13.50;;
19113;SDS011;9689;51.052;13.772;2022-10-16T03:46:37;20.85;;;12.85;;
19113;SDS011;9689;51.052;13.772;2022-10-16T03:51:37;18.67;;;13.38;;
19113;SDS011;9689;51.052;13.772;2022-10-16T03:56:38;18.67;;;13.80;;
19113;SDS011;9689;51.052;13.772;2022-10-16T04:01:40;19.25;;;14.50;;
19113;SDS011;9689;51.052;13.772;2022-10-16T04:06:41;20.08;;;13.65;;
19113;SDS011;9689;51.052;13.772;2022-10-16T04:11:42;19.02;;;14.20;;
19113;SDS011;9689;51.052;13.772;2022-10-16T04:16:44;18.20;;;12.77;;
19113;SDS011;9689;51.052;13.772;2022-10-16T04:21:45;19.98;;;13.85;;
19113;SDS011;9689;51.052;13.772;2022-10-16T04:26:46;20.45;;;13.77;;
19113;SDS011;9689;51.052;13.772;2022-10-16T04:31:48;18.85;;;14.07;;
19113;SDS011;9689;51.052;13.772;2022-10-16T04:36:49;21.52;;;13.82;;
19113;SDS011;9689;51.052;13.772;2022-10-16T04:41:50;16.98;;;13.32;;
19113;SDS011;9689;51.052;13.772;2022-10-16T04:46:52;20.23;;;12.65;;
19113;SDS011;9689;51.052;13.772;2022-10-16T04:51:53;19.17;;;14.45;;
19113;SDS011;9689;51.052;13.772;2022-10-16T04:56:53;19.27;;;14.60;;
19113;SDS011;9689;51.052;13.772;2022-10-16T05:01:56;16.85;;;13.15;;
19113;SDS011;9689;51.052;13.772;2022-10-16T05:06:57;19.15;;;13.75;;
19113;SDS011;9689;51.052;13.772;2022-10-16T05:11:57;18.85;;;14.32;;
19113;SDS011;9689;51.052;13.772;2022-10-16T05:17:00;19.20;;;14.57;;
19113;SDS011;9689;51.052;13.772;2022-10-16T05:22:01;19.08;;;14.32;;
19113;SDS011;9689;51.052;13.772;2022-10-16T05:27:02;21.38;;;14.00;;
19113;SDS011;9689;51.052;13.772;2022-10-16T05:32:04;22.92;;;13.82;;
19113;SDS011;9689;51.052;13.772;2022-10-16T05:37:05;18.50;;;14.15;;
19113;SDS011;9689;51.052;13.772;2022-10-16T05:42:06;19.13;;;12.52;;
19113;SDS011;9689;51.052;13.772;2022-10-16T05:47:08;18.60;;;12.88;;
19113;SDS011;9689;51.052;13.772;2022-10-16T05:52:11;17.60;;;13.10;;
19113;SDS011;9689;51.052;13.772;2022-10-16T05:57:11;20.98;;;13.73;;
19113;SDS011;9689;51.052;13.772;2022-10-16T06:02:14;16.45;;;12.60;;
19113;SDS011;9689;51.052;13.772;2022-10-16T06:07:15;17.27;;;13.63;;
19113;SDS011;9689;51.052;13.772;2022-10-16T06:12:16;19.50;;;12.57;;
19113;SDS011;9689;51.052;13.772;2022-10-16T06:17:18;15.80;;;12.35;;
19113;SDS011;9689;51.052;13.772;2022-10-16T06:22:19;20.42;;;12.27;;
19113;SDS011;9689;51.052;13.772;2022-10-16T06:27:20;19.77;;;12.98;;
19113;SDS011;9689;51.052;13.772;2022-10-16T06:32:23;15.95;;;12.20;;
19113;SDS011;9689;51.052;13.772;2022-10-16T06:37:23;15.52;;;12.07;;
19113;SDS011;9689;51.052;13.772;2022-10-16T06:42:25;18.13;;;13.02;;
19113;SDS011;9689;51.052;13.772;2022-10-16T06:47:29;16.70;;;12.50;;
19113;SDS011;9689;51.052;13.772;2022-10-16T06:52:30;17.23;;;13.05;;
19113;SDS011;9689;51.052;13.772;2022-10-16T06:57:31;18.23;;;13.90;;
19113;SDS011;9689;51.052;13.772;2022-10-16T07:02:33;21.48;;;13.15;;
19113;SDS011;9689;51.052;13.772;2022-10-16T07:07:34;19.60;;;14.63;;
19113;SDS011;9689;51.052;13.772;2022-10-16T07:12:35;18.17;;;13.82;;
19113;SDS011;9689;51.052;13.772;2022-10-16T07:17:37;14.65;;;11.50;;
19113;SDS011;9689;51.052;13.772;2022-10-16T07:22:38;19.58;;;12.68;;
19113;SDS011;9689;51.052;13.772;2022-10-16T07:27:39;14.38;;;11.18;;
19113;SDS011;9689;51.052;13.772;2022-10-16T07:32:41;14.52;;;12.05;;
19113;SDS011;9689;51.052;13.772;2022-10-16T07:37:43;15.55;;;11.68;;
19113;SDS011;9689;51.052;13.772;2022-10-16T07:42:45;13.52;;;11.15;;
19113;SDS011;9689;51.052;13.772;2022-10-16T07:47:47;16.50;;;12.50;;
19113;SDS011;9689;51.052;13.772;2022-10-16T07:52:48;15.35;;;12.43;;
19113;SDS011;9689;51.052;13.772;2022-10-16T07:57:48;15.40;;;11.60;;
19113;SDS011;9689;51.052;13.772;2022-10-16T08:02:51;16.17;;;12.20;;
19113;SDS011;9689;51.052;13.772;2022-10-16T08:07:51;14.88;;;11.52;;
19113;SDS011;9689;51.052;13.772;2022-10-16T08:12:52;14.00;;;11.30;;
19113;SDS011;9689;51.052;13.772;2022-10-16T08:17:55;12.68;;;9.90;;
19113;SDS011;9689;51.052;13.772;2022-10-16T08:22:58;14.02;;;9.57;;
19113;SDS011;9689;51.052;13.772;2022-10-16T08:27:59;15.45;;;10.80;;
19113;SDS011;9689;51.052;13.772;2022-10-16T08:33:01;11.73;;;9.27;;
19113;SDS011;9689;51.052;13.772;2022-10-16T08:38:03;10.40;;;9.10;;
19113;SDS011;9689;51.052;13.772;2022-10-16T08:43:11;11.60;;;8.98;;
19113;SDS011;9689;51.052;13.772;2022-10-16T08:48:30;10.88;;;8.02;;
19113;SDS011;9689;51.052;13.772;2022-10-16T08:53:38;10.32;;;7.53;;
19113;SDS011;9689;51.052;13.772;2022-10-16T08:58:43;9.32;;;6.72;;
19113;SDS011;9689;51.052;13.772;2022-10-16T09:03:56;7.93;;;6.68;;
19113;SDS011;9689;51.052;13.772;2022-10-16T09:09:11;9.73;;;7.53;;
19113;SDS011;9689;51.052;13.772;2022-10-16T09:14:35;9.07;;;7.43;;
19113;SDS011;9689;51.052;13.772;2022-10-16T09:19:50;8.25;;;6.72;;
19113;SDS011;9689;51.052;13.772;2022-10-16T09:24:54;9.43;;;7.55;;
19113;SDS011;9689;51.052;13.772;2022-10-16T09:29:55;21.38;;;12.07;;
19113;SDS011;9689;51.052;13.772;2022-10-16T09:34:59;14.00;;;8.10;;
19113;SDS011;9689;51.052;13.772;2022-10-16T09:40:01;11.00;;;7.72;;
19113;SDS011;9689;51.052;13.772;2022-10-16T09:45:19;7.50;;;5.93;;
19113;SDS011;9689;51.052;13.772;2022-10-16T09:50:25;10.75;;;6.72;;
19113;SDS011;9689;51.052;13.772;2022-10-16T09:55:34;8.73;;;6.03;;
19113;SDS011;9689;51.052;13.772;2022-10-16T10:01:00;6.82;;;5.75;;
19113;SDS011;9689;51.052;13.772;2022-10-16T10:06:04;6.82;;;5.30;;
19113;SDS011;9689;51.052;13.772;2022-10-16T10:11:17;29.50;;;12.18;;
19113;SDS011;9689;51.052;13.772;2022-10-16T10:16:23;8.55;;;5.75;;
19113;SDS011;9689;51.052;13.772;2022-10-16T10:21:25;4.75;;;3.90;;
19113;SDS011;9689;51.052;13.772;2022-10-16T10:26:27;6.32;;;2.83;;
19113;SDS011;9689;51.052;13.772;2022-10-16T10:31:36;5.82;;;2.85;;
19113;SDS011;9689;51.052;13.772;2022-10-16T10:36:45;2.70;;;2.20;;
19113;SDS011;9689;51.052;13.772;2022-10-16T10:42:06;2.70;;;0.90;;
19113;SDS011;9689;51.052;13.772;2022-10-16T10:47:17;1.45;;;1.13;;
19113;SDS011;9689;51.052;13.772;2022-10-16T10:52:38;3.63;;;1.42;;
19113;SDS011;9689;51.052;13.772;2022-10-16T10:57:46;2.80;;;1.42;;
19113;SDS011;9689;51.052;13.772;2022-10-16T11:02:58;2.47;;;0.82;;
19113;SDS011;9689;51.052;13.772;2022-10-16T11:08:10;0.82;;;0.60;;
19113;SDS011;9689;51.052;13.772;2022-10-16T11:13:19;0.70;;;0.63;;
19113;SDS011;9689;51.052;13.772;2022-10-16T11:18:26;0.60;;;0.30;;
19113;SDS011;9689;51.052;13.772;2022-10-16T11:23:35;0.77;;;0.50;;
19113;SDS011;9689;51.052;13.772;2022-10-16T11:28:42;1.38;;;0.35;;
19113;SDS011;9689;51.052;13.772;2022-10-16T11:33:49;0.30;;;0.30;;
19113;SDS011;9689;51.052;13.772;2022-10-16T11:38:57;0.47;;;0.47;;
19113;SDS011;9689;51.052;13.772;2022-10-16T11:44:09;0.57;;;0.40;;
19113;SDS011;9689;51.052;13.772;2022-10-16T11:49:19;1.45;;;0.50;;
19113;SDS011;9689;51.052;13.772;2022-10-16T11:54:26;0.70;;;0.40;;
19113;SDS011;9689;51.052;13.772;2022-10-16T11:59:33;0.68;;;0.60;;
19113;SDS011;9689;51.052;13.772;2022-10-16T12:04:42;1.05;;;0.35;;
19113;SDS011;9689;51.052;13.772;2022-10-16T12:09:47;0.73;;;0.60;;
19113;SDS011;9689;51.052;13.772;2022-10-16T12:14:59;0.77;;;0.40;;
19113;SDS011;9689;51.052;13.772;2022-10-16T12:20:22;2.42;;;0.55;;
19113;SDS011;9689;51.052;13.772;2022-10-16T12:25:28;0.75;;;0.50;;
19113;SDS011;9689;51.052;13.772;2022-10-16T12:30:32;1.15;;;0.50;;
19113;SDS011;9689;51.052;13.772;2022-10-16T12:35:42;0.95;;;0.60;;
19113;SDS011;9689;51.052;13.772;2022-10-16T12:41:35;1.17;;;0.60;;
19113;SDS011;9689;51.052;13.772;2022-10-16T12:47:03;0.30;;;0.30;;
19113;SDS011;9689;51.052;13.772;2022-10-16T12:57:44;1.15;;;0.50;;
19113;SDS011;9689;51.052;13.772;2022-10-16T13:09:02;1.52;;;0.60;;
19113;SDS011;9689;51.052;13.772;2022-10-16T13:14:29;0.60;;;0.40;;
19113;SDS011;9689;51.052;13.772;2022-10-16T13:19:48;1.10;;;0.70;;
19113;SDS011;9689;51.052;13.772;2022-10-16T13:25:02;0.47;;;0.40;;
19113;SDS011;9689;51.052;13.772;2022-10-16T13:30:20;1.95;;;0.60;;
19113;SDS011;9689;51.052;13.772;2022-10-16T13:35:29;2.38;;;0.52;;
19113;SDS011;9689;51.052;13.772;2022-10-16T13:40:30;0.45;;;0.40;;
19113;SDS011;9689;51.052;13.772;2022-10-16T13:45:35;0.50;;;0.50;;
19113;SDS011;9689;51.052;13.772;2022-10-16T13:50:36;1.63;;;0.65;;
19113;SDS011;9689;51.052;13.772;2022-10-16T13:55:37;1.17;;;0.60;;
19113;SDS011;9689;51.052;13.772;2022-10-16T14:00:39;5.55;;;1.10;;
19113;SDS011;9689;51.052;13.772;2022-10-16T14:05:42;1.77;;;0.80;;
19113;SDS011;9689;51.052;13.772;2022-10-16T14:10:48;0.65;;;0.47;;
19113;SDS011;9689;51.052;13.772;2022-10-16T14:15:52;1.00;;;0.90;;
19113;SDS011;9689;51.052;13.772;2022-10-16T14:20:54;4.97;;;0.80;;
19113;SDS011;9689;51.052;13.772;2022-10-16T14:26:11;4.18;;;2.60;;
19113;SDS011;9689;51.052;13.772;2022-10-16T14:31:25;3.05;;;1.10;;
19113;SDS011;9689;51.052;13.772;2022-10-16T14:36:29;2.15;;;1.40;;
19113;SDS011;9689;51.052;13.772;2022-10-16T14:41:31;2.33;;;1.23;;
19113;SDS011;9689;51.052;13.772;2022-10-16T14:46:35;2.20;;;1.58;;
19113;SDS011;9689;51.052;13.772;2022-10-16T14:51:38;2.22;;;1.40;;
19113;SDS011;9689;51.052;13.772;2022-10-16T14:56:45;5.28;;;2.03;;
19113;SDS011;9689;51.052;13.772;2022-10-16T15:01:50;2.25;;;1.52;;
19113;SDS011;9689;51.052;13.772;2022-10-16T15:06:51;4.07;;;1.95;;
19113;SDS011;9689;51.052;13.772;2022-10-16T15:11:52;3.85;;;2.00;;
19113;SDS011;9689;51.052;13.772;2022-10-16T15:16:54;2.63;;;1.75;;
19113;SDS011;9689;51.052;13.772;2022-10-16T15:21:55;4.03;;;1.83;;
19113;SDS011;9689;51.052;13.772;2022-10-16T15:26:58;2.58;;;1.60;;
19113;SDS011;9689;51.052;13.772;2022-10-16T15:32:01;2.55;;;1.95;;
19113;SDS011;9689;51.052;13.772;2022-10-16T15:37:02;2.70;;;1.60;;
19113;SDS011;9689;51.052;13.772;2022-10-16T15:42:04;2.97;;;1.58;;
19113;SDS011;9689;51.052;13.772;2022-10-16T15:47:07;6.30;;;1.95;;
19113;SDS011;9689;51.052;13.772;2022-10-16T15:52:08;4.15;;;1.83;;
19113;SDS011;9689;51.052;13.772;2022-10-16T15:57:09;4.38;;;2.28;;
19113;SDS011;9689;51.052;13.772;2022-10-16T16:02:11;5.00;;;2.08;;
19113;SDS011;9689;51.052;13.772;2022-10-16T16:07:12;3.03;;;1.55;;
19113;SDS011;9689;51.052;13.772;2022-10-16T16:12:13;4.72;;;2.20;;
19113;SDS011;9689;51.052;13.772;2022-10-16T16:17:15;3.83;;;2.38;;
19113;SDS011;9689;51.052;13.772;2022-10-16T16:22:17;6.22;;;2.17;;
19113;SDS011;9689;51.052;13.772;2022-10-16T16:27:18;3.03;;;1.95;;
19113;SDS011;9689;51.052;13.772;2022-10-16T16:32:20;3.80;;;2.20;;
19113;SDS011;9689;51.052;13.772;2022-10-16T16:37:22;5.43;;;2.25;;
19113;SDS011;9689;51.052;13.772;2022-10-16T16:42:24;4.22;;;2.50;;
19113;SDS011;9689;51.052;13.772;2022-10-16T16:47:26;5.30;;;2.50;;
19113;SDS011;9689;51.052;13.772;2022-10-16T16:52:28;4.68;;;2.80;;
19113;SDS011;9689;51.052;13.772;2022-10-16T16:57:29;5.78;;;2.75;;
19113;SDS011;9689;51.052;13.772;2022-10-16T17:02:32;6.13;;;2.90;;
19113;SDS011;9689;51.052;13.772;2022-10-16T17:07:33;3.75;;;2.88;;
19113;SDS011;9689;51.052;13.772;2022-10-16T17:12:34;5.25;;;2.72;;
19113;SDS011;9689;51.052;13.772;2022-10-16T17:17:37;7.97;;;3.00;;
19113;SDS011;9689;51.052;13.772;2022-10-16T17:22:39;6.68;;;3.85;;
19113;SDS011;9689;51.052;13.772;2022-10-16T17:27:39;5.75;;;3.55;;
19113;SDS011;9689;51.052;13.772;2022-10-16T17:32:42;7.88;;;3.70;;
19113;SDS011;9689;51.052;13.772;2022-10-16T17:37:42;6.45;;;3.97;;
19113;SDS011;9689;51.052;13.772;2022-10-16T17:42:43;8.82;;;4.30;;
19113;SDS011;9689;51.052;13.772;2022-10-16T17:47:46;8.30;;;4.30;;
19113;SDS011;9689;51.052;13.772;2022-10-16T17:52:46;7.65;;;4.68;;
19113;SDS011;9689;51.052;13.772;2022-10-16T17:57:47;9.05;;;5.43;;
19113;SDS011;9689;51.052;13.772;2022-10-16T18:02:50;9.18;;;5.85;;
19113;SDS011;9689;51.052;13.772;2022-10-16T18:07:50;9.88;;;5.85;;
19113;SDS011;9689;51.052;13.772;2022-10-16T18:12:51;12.43;;;5.55;;
19113;SDS011;9689;51.052;13.772;2022-10-16T18:17:54;9.82;;;4.95;;
19113;SDS011;9689;51.052;13.772;2022-10-16T18:22:55;10.50;;;6.43;;
19113;SDS011;9689;51.052;13.772;2022-10-16T18:27:55;11.75;;;6.57;;
19113;SDS011;9689;51.052;13.772;2022-10-16T18:32:58;16.95;;;7.43;;
19113;SDS011;9689;51.052;13.772;2022-10-16T18:37:59;12.40;;;7.60;;
19113;SDS011;9689;51.052;13.772;2022-10-16T18:42:59;9.73;;;6.38;;
19113;SDS011;9689;51.052;13.772;2022-10-16T18:48:02;9.85;;;6.97;;
19113;SDS011;9689;51.052;13.772;2022-10-16T18:53:03;13.48;;;7.05;;
19113;SDS011;9689;51.052;13.772;2022-10-16T18:58:04;12.60;;;7.53;;
19113;SDS011;9689;51.052;13.772;2022-10-16T19:03:06;12.95;;;8.02;;
19113;SDS011;9689;51.052;13.772;2022-10-16T19:08:07;14.70;;;8.07;;
19113;SDS011;9689;51.052;13.772;2022-10-16T19:13:08;16.30;;;8.80;;
19113;SDS011;9689;51.052;13.772;2022-10-16T19:18:10;12.77;;;8.23;;
19113;SDS011;9689;51.052;13.772;2022-10-16T19:23:11;11.90;;;8.00;;
19113;SDS011;9689;51.052;13.772;2022-10-16T19:28:12;13.25;;;8.50;;
19113;SDS011;9689;51.052;13.772;2022-10-16T19:33:15;13.82;;;8.90;;
19113;SDS011;9689;51.052;13.772;2022-10-16T19:38:16;12.27;;;8.82;;
19113;SDS011;9689;51.052;13.772;2022-10-16T19:43:17;14.63;;;9.50;;
19113;SDS011;9689;51.052;13.772;2022-10-16T19:48:19;15.25;;;9.55;;
19113;SDS011;9689;51.052;13.772;2022-10-16T19:53:26;16.45;;;9.20;;
19113;SDS011;9689;51.052;13.772;2022-10-16T19:58:27;13.70;;;8.32;;
19113;SDS011;9689;51.052;13.772;2022-10-16T20:03:29;12.60;;;8.98;;
19113;SDS011;9689;51.052;13.772;2022-10-16T20:08:30;13.40;;;8.63;;
19113;SDS011;9689;51.052;13.772;2022-10-16T20:13:31;15.93;;;8.55;;
19113;SDS011;9689;51.052;13.772;2022-10-16T20:18:40;15.23;;;8.02;;
19113;SDS011;9689;51.052;13.772;2022-10-16T20:23:41;17.40;;;8.02;;
19113;SDS011;9689;51.052;13.772;2022-10-16T20:28:43;15.52;;;7.43;;
19113;SDS011;9689;51.052;13.772;2022-10-16T20:33:45;14.30;;;7.05;;
19113;SDS011;9689;51.052;13.772;2022-10-16T20:38:46;10.75;;;6.40;;
19113;SDS011;9689;51.052;13.772;2022-10-16T20:43:49;13.75;;;5.47;;
19113;SDS011;9689;51.052;13.772;2022-10-16T20:48:52;11.02;;;6.13;;
19113;SDS011;9689;51.052;13.772;2022-10-16T20:54:10;7.45;;;4.82;;
19113;SDS011;9689;51.052;13.772;2022-10-16T20:59:11;7.68;;;5.03;;
19113;SDS011;9689;51.052;13.772;2022-10-16T21:04:14;9.32;;;5.45;;
19113;SDS011;9689;51.052;13.772;2022-10-16T21:09:15;9.52;;;5.07;;
19113;SDS011;9689;51.052;13.772;2022-10-16T21:14:16;11.05;;;5.05;;
19113;SDS011;9689;51.052;13.772;2022-10-16T21:19:18;7.88;;;5.03;;
19113;SDS011;9689;51.052;13.772;2022-10-16T21:24:19;7.93;;;4.53;;
19113;SDS011;9689;51.052;13.772;2022-10-16T21:29:20;10.52;;;5.28;;
19113;SDS011;9689;51.052;13.772;2022-10-16T21:34:22;7.70;;;5.10;;
19113;SDS011;9689;51.052;13.772;2022-10-16T21:39:23;7.28;;;4.65;;
19113;SDS011;9689;51.052;13.772;2022-10-16T21:44:24;8.80;;;5.38;;
19113;SDS011;9689;51.052;13.772;2022-10-16T21:49:26;9.68;;;5.63;;
19113;SDS011;9689;51.052;13.772;2022-10-16T21:54:27;13.60;;;5.75;;
19113;SDS011;9689;51.052;13.772;2022-10-16T21:59:28;11.35;;;6.10;;
19113;SDS011;9689;51.052;13.772;2022-10-16T22:04:30;8.07;;;5.82;;
19113;SDS011;9689;51.052;13.772;2022-10-16T22:09:31;6.78;;;5.22;;
19113;SDS011;9689;51.052;13.772;2022-10-16T22:14:32;9.15;;;5.57;;
19113;SDS011;9689;51.052;13.772;2022-10-16T22:19:34;8.98;;;5.47;;
19113;SDS011;9689;51.052;13.772;2022-10-16T22:24:35;16.58;;;5.15;;
19113;SDS011;9689;51.052;13.772;2022-10-16T22:29:36;7.85;;;5.20;;
19113;SDS011;9689;51.052;13.772;2022-10-16T22:34:38;10.43;;;5.15;;
19113;SDS011;9689;51.052;13.772;2022-10-16T22:39:39;10.20;;;5.70;;
19113;SDS011;9689;51.052;13.772;2022-10-16T22:44:40;9.43;;;5.30;;
19113;SDS011;9689;51.052;13.772;2022-10-16T22:49:42;9.65;;;5.72;;
19113;SDS011;9689;51.052;13.772;2022-10-16T22:54:43;9.93;;;5.68;;
19113;SDS011;9689;51.052;13.772;2022-10-16T22:59:45;8.52;;;4.82;;
19113;SDS011;9689;51.052;13.772;2022-10-16T23:04:48;8.90;;;5.10;;
19113;SDS011;9689;51.052;13.772;2022-10-16T23:09:49;12.45;;;4.88;;
19113;SDS011;9689;51.052;13.772;2022-10-16T23:14:49;10.27;;;6.00;;
19113;SDS011;9689;51.052;13.772;2022-10-16T23:19:52;8.85;;;5.65;;
19113;SDS011;9689;51.052;13.772;2022-10-16T23:24:53;9.55;;;5.82;;
19113;SDS011;9689;51.052;13.772;2022-10-16T23:29:53;6.50;;;5.10;;
19113;SDS011;9689;51.052;13.772;2022-10-16T23:34:56;12.95;;;5.78;;
19113;SDS011;9689;51.052;13.772;2022-10-16T23:39:56;7.85;;;5.10;;
19113;SDS011;9689;51.052;13.772;2022-10-16T23:44:57;13.30;;;5.32;;
19113;SDS011;9689;51.052;13.772;2022-10-16T23:50:00;7.65;;;5.22;;
19113;SDS011;9689;51.052;13.772;2022-10-16T23:55:00;10.27;;;5.25;;
